sensor_id;sensor_type;location;lat;lon;timestamp;P1;durP1;ratioP1;P2;durP2;ratioP2
9689;SDS011;4884;42.614;23.340;2023-03-29T00:02:14;6.53;;;4.50;;
9689;SDS011;4884;42.614;23.340;2023-03-29T00:04:40;6.23;;;4.60;;
9689;SDS011;4884;42.614;23.340;2023-03-29T00:07:06;6.10;;;4.30;;
9689;SDS011;4884;42.614;23.340;2023-03-29T00:09:31;3.27;;;2.87;;
9689;SDS011;4884;42.614;23.340;2023-03-29T00:11:57;3.30;;;3.00;;
9689;SDS011;4884;42.614;23.340;2023-03-29T00:14:23;11.40;;;4.50;;
9689;SDS011;4884;42.614;23.340;2023-03-29T00:16:50;6.70;;;5.23;;
9689;SDS011;4884;42.614;23.340;2023-03-29T00:19:15;5.07;;;4.03;;
9689;SDS011;4884;42.614;23.340;2023-03-29T00:21:41;5.13;;;4.30;;
9689;SDS011;4884;42.614;23.340;2023-03-29T00:24:07;7.13;;;3.27;;
9689;SDS011;4884;42.614;23.340;2023-03-29T00:26:32;3.67;;;3.37;;
9689;SDS011;4884;42.614;23.340;2023-03-29T00:28:57;4.47;;;3.57;;
9689;SDS011;4884;42.614;23.340;2023-03-29T00:31:23;6.13;;;4.17;;
9689;SDS011;4884;42.614;23.340;2023-03-29T00:33:48;4.27;;;3.87;;
9689;SDS011;4884;42.614;23.340;2023-03-29T00:36:14;7.73;;;4.10;;
9689;SDS011;4884;42.614;23.340;2023-03-29T00:38:40;4.60;;;4.10;;
9689;SDS011;4884;42.614;23.340;2023-03-29T00:41:06;4.57;;;4.07;;
9689;SDS011;4884;42.614;23.340;2023-03-29T00:46:23;6.97;;;4.07;;
9689;SDS011;4884;42.614;23.340;2023-03-29T00:48:54;4.67;;;3.90;;
9689;SDS011;4884;42.614;23.340;2023-03-29T00:51:23;4.57;;;3.30;;
9689;SDS011;4884;42.614;23.340;2023-03-29T00:53:52;5.43;;;4.43;;
9689;SDS011;4884;42.614;23.340;2023-03-29T00:59:17;9.07;;;3.20;;
9689;SDS011;4884;42.614;23.340;2023-03-29T01:01:47;4.43;;;4.03;;
9689;SDS011;4884;42.614;23.340;2023-03-29T01:04:22;4.27;;;3.50;;
9689;SDS011;4884;42.614;23.340;2023-03-29T01:06:52;4.07;;;3.50;;
9689;SDS011;4884;42.614;23.340;2023-03-29T01:09:20;5.03;;;3.73;;
9689;SDS011;4884;42.614;23.340;2023-03-29T01:11:52;5.37;;;3.87;;
9689;SDS011;4884;42.614;23.340;2023-03-29T01:16:47;6.73;;;3.93;;
9689;SDS011;4884;42.614;23.340;2023-03-29T01:19:12;4.63;;;4.23;;
9689;SDS011;4884;42.614;23.340;2023-03-29T01:21:41;3.30;;;3.00;;
9689;SDS011;4884;42.614;23.340;2023-03-29T01:29:22;4.80;;;3.80;;
9689;SDS011;4884;42.614;23.340;2023-03-29T01:31:51;4.77;;;4.27;;
9689;SDS011;4884;42.614;23.340;2023-03-29T01:34:22;4.37;;;3.97;;
9689;SDS011;4884;42.614;23.340;2023-03-29T01:36:56;4.20;;;3.83;;
9689;SDS011;4884;42.614;23.340;2023-03-29T01:39:28;7.87;;;4.50;;
9689;SDS011;4884;42.614;23.340;2023-03-29T01:44:47;5.57;;;4.33;;
9689;SDS011;4884;42.614;23.340;2023-03-29T01:52:55;4.47;;;4.07;;
9689;SDS011;4884;42.614;23.340;2023-03-29T01:55:25;4.63;;;4.07;;
9689;SDS011;4884;42.614;23.340;2023-03-29T01:57:55;5.17;;;4.10;;
9689;SDS011;4884;42.614;23.340;2023-03-29T02:00:23;4.63;;;3.67;;
9689;SDS011;4884;42.614;23.340;2023-03-29T02:02:51;6.43;;;3.63;;
9689;SDS011;4884;42.614;23.340;2023-03-29T02:05:19;3.03;;;2.57;;
9689;SDS011;4884;42.614;23.340;2023-03-29T02:07:47;3.97;;;3.60;;
9689;SDS011;4884;42.614;23.340;2023-03-29T02:10:14;6.53;;;3.70;;
9689;SDS011;4884;42.614;23.340;2023-03-29T02:12:40;4.20;;;3.80;;
9689;SDS011;4884;42.614;23.340;2023-03-29T02:15:09;5.00;;;3.80;;
9689;SDS011;4884;42.614;23.340;2023-03-29T02:17:39;6.43;;;4.40;;
9689;SDS011;4884;42.614;23.340;2023-03-29T02:20:08;4.23;;;3.83;;
9689;SDS011;4884;42.614;23.340;2023-03-29T02:22:40;4.10;;;3.77;;
9689;SDS011;4884;42.614;23.340;2023-03-29T02:25:11;5.30;;;4.30;;
9689;SDS011;4884;42.614;23.340;2023-03-29T02:27:37;5.43;;;5.03;;
9689;SDS011;4884;42.614;23.340;2023-03-29T02:30:04;5.83;;;4.23;;
9689;SDS011;4884;42.614;23.340;2023-03-29T02:35:24;3.97;;;3.57;;
9689;SDS011;4884;42.614;23.340;2023-03-29T02:37:58;5.17;;;4.07;;
9689;SDS011;4884;42.614;23.340;2023-03-29T02:40:25;6.90;;;3.70;;
9689;SDS011;4884;42.614;23.340;2023-03-29T02:42:51;4.77;;;4.03;;
9689;SDS011;4884;42.614;23.340;2023-03-29T02:45:18;8.37;;;4.13;;
9689;SDS011;4884;42.614;23.340;2023-03-29T02:47:45;3.83;;;3.50;;
9689;SDS011;4884;42.614;23.340;2023-03-29T02:50:13;4.00;;;3.30;;
9689;SDS011;4884;42.614;23.340;2023-03-29T02:52:40;4.53;;;4.07;;
9689;SDS011;4884;42.614;23.340;2023-03-29T02:55:09;4.17;;;3.77;;
9689;SDS011;4884;42.614;23.340;2023-03-29T02:57:39;4.50;;;3.73;;
9689;SDS011;4884;42.614;23.340;2023-03-29T03:00:07;5.67;;;4.23;;
9689;SDS011;4884;42.614;23.340;2023-03-29T03:02:34;4.33;;;3.93;;
9689;SDS011;4884;42.614;23.340;2023-03-29T03:05:00;3.80;;;3.50;;
9689;SDS011;4884;42.614;23.340;2023-03-29T03:07:25;4.40;;;3.90;;
9689;SDS011;4884;42.614;23.340;2023-03-29T03:09:52;7.50;;;4.83;;
9689;SDS011;4884;42.614;23.340;2023-03-29T03:12:18;4.80;;;4.07;;
9689;SDS011;4884;42.614;23.340;2023-03-29T03:14:43;4.80;;;4.20;;
9689;SDS011;4884;42.614;23.340;2023-03-29T03:17:08;6.47;;;3.90;;
9689;SDS011;4884;42.614;23.340;2023-03-29T03:19:34;6.17;;;4.20;;
9689;SDS011;4884;42.614;23.340;2023-03-29T03:22:00;3.87;;;3.50;;
9689;SDS011;4884;42.614;23.340;2023-03-29T03:24:26;4.97;;;4.47;;
9689;SDS011;4884;42.614;23.340;2023-03-29T03:26:52;5.23;;;3.73;;
9689;SDS011;4884;42.614;23.340;2023-03-29T03:29:17;6.87;;;3.67;;
9689;SDS011;4884;42.614;23.340;2023-03-29T03:31:43;10.33;;;3.60;;
9689;SDS011;4884;42.614;23.340;2023-03-29T03:34:08;4.40;;;4.00;;
9689;SDS011;4884;42.614;23.340;2023-03-29T03:36:35;5.20;;;3.80;;
9689;SDS011;4884;42.614;23.340;2023-03-29T03:39:00;5.50;;;3.73;;
9689;SDS011;4884;42.614;23.340;2023-03-29T03:41:29;4.77;;;3.27;;
9689;SDS011;4884;42.614;23.340;2023-03-29T03:43:55;3.97;;;3.57;;
9689;SDS011;4884;42.614;23.340;2023-03-29T03:46:20;3.20;;;2.90;;
9689;SDS011;4884;42.614;23.340;2023-03-29T03:48:46;3.27;;;2.67;;
9689;SDS011;4884;42.614;23.340;2023-03-29T03:51:12;4.17;;;3.07;;
9689;SDS011;4884;42.614;23.340;2023-03-29T03:53:38;4.37;;;3.30;;
9689;SDS011;4884;42.614;23.340;2023-03-29T03:56:04;4.47;;;3.60;;
9689;SDS011;4884;42.614;23.340;2023-03-29T03:58:33;5.20;;;3.67;;
9689;SDS011;4884;42.614;23.340;2023-03-29T04:00:59;5.40;;;3.63;;
9689;SDS011;4884;42.614;23.340;2023-03-29T04:03:25;5.30;;;3.43;;
9689;SDS011;4884;42.614;23.340;2023-03-29T04:05:51;4.20;;;3.43;;
9689;SDS011;4884;42.614;23.340;2023-03-29T04:08:16;5.87;;;3.30;;
9689;SDS011;4884;42.614;23.340;2023-03-29T04:10:43;5.20;;;3.30;;
9689;SDS011;4884;42.614;23.340;2023-03-29T04:13:15;4.97;;;3.00;;
9689;SDS011;4884;42.614;23.340;2023-03-29T04:15:41;3.30;;;2.93;;
9689;SDS011;4884;42.614;23.340;2023-03-29T04:18:06;2.63;;;2.27;;
9689;SDS011;4884;42.614;23.340;2023-03-29T04:20:32;3.30;;;3.00;;
9689;SDS011;4884;42.614;23.340;2023-03-29T04:22:58;2.67;;;2.47;;
9689;SDS011;4884;42.614;23.340;2023-03-29T04:25:23;4.40;;;2.90;;
9689;SDS011;4884;42.614;23.340;2023-03-29T04:27:49;3.40;;;2.47;;
9689;SDS011;4884;42.614;23.340;2023-03-29T04:30:14;3.43;;;2.27;;
9689;SDS011;4884;42.614;23.340;2023-03-29T04:32:40;3.27;;;2.80;;
9689;SDS011;4884;42.614;23.340;2023-03-29T04:35:06;5.47;;;2.37;;
9689;SDS011;4884;42.614;23.340;2023-03-29T04:37:32;4.87;;;2.67;;
9689;SDS011;4884;42.614;23.340;2023-03-29T04:39:58;3.00;;;2.80;;
9689;SDS011;4884;42.614;23.340;2023-03-29T04:42:28;3.40;;;2.80;;
9689;SDS011;4884;42.614;23.340;2023-03-29T04:44:53;3.53;;;2.73;;
9689;SDS011;4884;42.614;23.340;2023-03-29T04:47:19;2.60;;;2.40;;
9689;SDS011;4884;42.614;23.340;2023-03-29T04:49:45;3.67;;;2.40;;
9689;SDS011;4884;42.614;23.340;2023-03-29T04:52:10;3.10;;;2.57;;
9689;SDS011;4884;42.614;23.340;2023-03-29T04:54:36;4.10;;;2.57;;
9689;SDS011;4884;42.614;23.340;2023-03-29T04:57:02;3.67;;;2.63;;
9689;SDS011;4884;42.614;23.340;2023-03-29T04:59:29;4.20;;;2.70;;
9689;SDS011;4884;42.614;23.340;2023-03-29T05:01:54;3.77;;;2.63;;
9689;SDS011;4884;42.614;23.340;2023-03-29T05:04:20;4.53;;;2.80;;
9689;SDS011;4884;42.614;23.340;2023-03-29T05:06:45;3.07;;;2.77;;
9689;SDS011;4884;42.614;23.340;2023-03-29T05:09:11;2.77;;;2.40;;
9689;SDS011;4884;42.614;23.340;2023-03-29T05:11:36;3.27;;;2.67;;
9689;SDS011;4884;42.614;23.340;2023-03-29T05:14:02;3.30;;;2.70;;
9689;SDS011;4884;42.614;23.340;2023-03-29T05:16:31;3.67;;;2.60;;
9689;SDS011;4884;42.614;23.340;2023-03-29T05:18:57;7.50;;;3.00;;
9689;SDS011;4884;42.614;23.340;2023-03-29T05:21:22;3.00;;;2.63;;
9689;SDS011;4884;42.614;23.340;2023-03-29T05:23:50;3.17;;;2.40;;
9689;SDS011;4884;42.614;23.340;2023-03-29T05:26:16;3.90;;;2.80;;
9689;SDS011;4884;42.614;23.340;2023-03-29T05:28:41;3.90;;;2.77;;
9689;SDS011;4884;42.614;23.340;2023-03-29T05:31:06;8.67;;;3.90;;
9689;SDS011;4884;42.614;23.340;2023-03-29T05:33:32;5.83;;;3.30;;
9689;SDS011;4884;42.614;23.340;2023-03-29T05:36:02;5.93;;;3.10;;
9689;SDS011;4884;42.614;23.340;2023-03-29T05:38:29;4.03;;;3.37;;
9689;SDS011;4884;42.614;23.340;2023-03-29T05:40:54;4.57;;;3.33;;
9689;SDS011;4884;42.614;23.340;2023-03-29T05:43:20;4.70;;;2.77;;
9689;SDS011;4884;42.614;23.340;2023-03-29T05:45:46;2.80;;;2.60;;
9689;SDS011;4884;42.614;23.340;2023-03-29T05:48:11;3.77;;;3.27;;
9689;SDS011;4884;42.614;23.340;2023-03-29T05:50:37;6.43;;;3.50;;
9689;SDS011;4884;42.614;23.340;2023-03-29T05:53:02;7.30;;;4.20;;
9689;SDS011;4884;42.614;23.340;2023-03-29T05:55:28;7.27;;;3.67;;
9689;SDS011;4884;42.614;23.340;2023-03-29T05:57:53;11.70;;;7.50;;
9689;SDS011;4884;42.614;23.340;2023-03-29T06:00:19;8.70;;;5.43;;
9689;SDS011;4884;42.614;23.340;2023-03-29T06:02:49;8.43;;;3.97;;
9689;SDS011;4884;42.614;23.340;2023-03-29T06:05:17;15.17;;;6.23;;
9689;SDS011;4884;42.614;23.340;2023-03-29T06:07:44;8.23;;;5.37;;
9689;SDS011;4884;42.614;23.340;2023-03-29T06:10:10;5.50;;;4.40;;
9689;SDS011;4884;42.614;23.340;2023-03-29T06:12:36;5.60;;;5.00;;
9689;SDS011;4884;42.614;23.340;2023-03-29T06:15:01;12.13;;;7.27;;
9689;SDS011;4884;42.614;23.340;2023-03-29T06:17:29;6.87;;;4.33;;
9689;SDS011;4884;42.614;23.340;2023-03-29T06:19:55;9.37;;;8.47;;
9689;SDS011;4884;42.614;23.340;2023-03-29T06:22:21;7.93;;;6.23;;
9689;SDS011;4884;42.614;23.340;2023-03-29T06:24:47;3.57;;;3.27;;
9689;SDS011;4884;42.614;23.340;2023-03-29T06:27:12;12.03;;;9.90;;
9689;SDS011;4884;42.614;23.340;2023-03-29T06:29:38;6.50;;;3.67;;
9689;SDS011;4884;42.614;23.340;2023-03-29T06:32:04;8.77;;;7.97;;
9689;SDS011;4884;42.614;23.340;2023-03-29T06:34:29;4.37;;;3.97;;
9689;SDS011;4884;42.614;23.340;2023-03-29T06:36:55;17.13;;;15.63;;
9689;SDS011;4884;42.614;23.340;2023-03-29T06:39:20;5.43;;;4.20;;
9689;SDS011;4884;42.614;23.340;2023-03-29T06:41:45;6.97;;;4.90;;
9689;SDS011;4884;42.614;23.340;2023-03-29T06:44:11;5.47;;;3.70;;
9689;SDS011;4884;42.614;23.340;2023-03-29T06:46:37;7.67;;;3.10;;
9689;SDS011;4884;42.614;23.340;2023-03-29T06:49:02;3.93;;;3.23;;
9689;SDS011;4884;42.614;23.340;2023-03-29T06:51:27;6.17;;;4.30;;
9689;SDS011;4884;42.614;23.340;2023-03-29T06:53:53;5.93;;;4.57;;
9689;SDS011;4884;42.614;23.340;2023-03-29T06:56:18;8.53;;;6.53;;
9689;SDS011;4884;42.614;23.340;2023-03-29T06:58:44;6.60;;;3.77;;
9689;SDS011;4884;42.614;23.340;2023-03-29T07:01:11;4.50;;;3.13;;
9689;SDS011;4884;42.614;23.340;2023-03-29T07:03:36;3.70;;;2.67;;
9689;SDS011;4884;42.614;23.340;2023-03-29T07:06:03;6.10;;;3.57;;
9689;SDS011;4884;42.614;23.340;2023-03-29T07:08:34;3.93;;;3.27;;
9689;SDS011;4884;42.614;23.340;2023-03-29T07:11:07;4.67;;;3.77;;
9689;SDS011;4884;42.614;23.340;2023-03-29T07:13:34;4.13;;;3.10;;
9689;SDS011;4884;42.614;23.340;2023-03-29T07:15:59;5.90;;;3.67;;
9689;SDS011;4884;42.614;23.340;2023-03-29T07:18:25;6.17;;;4.77;;
9689;SDS011;4884;42.614;23.340;2023-03-29T07:20:50;3.30;;;2.60;;
9689;SDS011;4884;42.614;23.340;2023-03-29T07:23:16;2.73;;;2.43;;
9689;SDS011;4884;42.614;23.340;2023-03-29T07:25:42;8.10;;;7.30;;
9689;SDS011;4884;42.614;23.340;2023-03-29T07:28:08;11.13;;;6.63;;
9689;SDS011;4884;42.614;23.340;2023-03-29T07:30:35;5.67;;;2.60;;
9689;SDS011;4884;42.614;23.340;2023-03-29T07:33:01;2.80;;;2.60;;
9689;SDS011;4884;42.614;23.340;2023-03-29T07:35:26;3.40;;;3.10;;
9689;SDS011;4884;42.614;23.340;2023-03-29T07:37:52;4.00;;;3.43;;
9689;SDS011;4884;42.614;23.340;2023-03-29T07:40:19;6.80;;;3.77;;
9689;SDS011;4884;42.614;23.340;2023-03-29T07:42:51;4.97;;;2.80;;
9689;SDS011;4884;42.614;23.340;2023-03-29T07:45:18;5.47;;;2.83;;
9689;SDS011;4884;42.614;23.340;2023-03-29T07:47:48;8.53;;;5.90;;
9689;SDS011;4884;42.614;23.340;2023-03-29T07:50:14;8.53;;;4.97;;
9689;SDS011;4884;42.614;23.340;2023-03-29T07:52:40;3.70;;;2.80;;
9689;SDS011;4884;42.614;23.340;2023-03-29T07:55:07;3.17;;;2.37;;
9689;SDS011;4884;42.614;23.340;2023-03-29T07:57:33;7.93;;;3.17;;
9689;SDS011;4884;42.614;23.340;2023-03-29T07:59:59;7.67;;;4.27;;
9689;SDS011;4884;42.614;23.340;2023-03-29T08:02:26;4.90;;;2.70;;
9689;SDS011;4884;42.614;23.340;2023-03-29T08:04:52;8.17;;;3.73;;
9689;SDS011;4884;42.614;23.340;2023-03-29T08:07:17;3.40;;;2.43;;
9689;SDS011;4884;42.614;23.340;2023-03-29T08:09:44;3.30;;;2.30;;
9689;SDS011;4884;42.614;23.340;2023-03-29T08:12:09;33.27;;;18.57;;
9689;SDS011;4884;42.614;23.340;2023-03-29T08:14:35;5.03;;;2.80;;
9689;SDS011;4884;42.614;23.340;2023-03-29T08:17:00;4.03;;;2.57;;
9689;SDS011;4884;42.614;23.340;2023-03-29T08:19:26;5.80;;;3.37;;
9689;SDS011;4884;42.614;23.340;2023-03-29T08:21:51;4.77;;;4.33;;
9689;SDS011;4884;42.614;23.340;2023-03-29T08:24:17;2.63;;;2.30;;
9689;SDS011;4884;42.614;23.340;2023-03-29T08:26:43;2.20;;;1.93;;
9689;SDS011;4884;42.614;23.340;2023-03-29T08:29:08;2.20;;;1.97;;
9689;SDS011;4884;42.614;23.340;2023-03-29T08:31:34;3.77;;;2.70;;
9689;SDS011;4884;42.614;23.340;2023-03-29T08:33:59;5.73;;;3.40;;
9689;SDS011;4884;42.614;23.340;2023-03-29T08:36:25;5.23;;;4.83;;
9689;SDS011;4884;42.614;23.340;2023-03-29T08:38:51;3.23;;;2.10;;
9689;SDS011;4884;42.614;23.340;2023-03-29T08:41:27;3.20;;;2.80;;
9689;SDS011;4884;42.614;23.340;2023-03-29T08:50:04;5.80;;;4.43;;
9689;SDS011;4884;42.614;23.340;2023-03-29T08:54:59;6.70;;;2.40;;
9689;SDS011;4884;42.614;23.340;2023-03-29T08:57:35;6.87;;;3.50;;
9689;SDS011;4884;42.614;23.340;2023-03-29T09:00:05;3.63;;;1.77;;
9689;SDS011;4884;42.614;23.340;2023-03-29T09:02:34;2.43;;;2.20;;
9689;SDS011;4884;42.614;23.340;2023-03-29T09:05:07;3.67;;;1.97;;
9689;SDS011;4884;42.614;23.340;2023-03-29T09:07:38;4.97;;;2.87;;
9689;SDS011;4884;42.614;23.340;2023-03-29T09:10:04;3.17;;;2.07;;
9689;SDS011;4884;42.614;23.340;2023-03-29T09:12:49;3.17;;;1.83;;
9689;SDS011;4884;42.614;23.340;2023-03-29T09:15:39;3.13;;;1.80;;
9689;SDS011;4884;42.614;23.340;2023-03-29T09:26:08;3.60;;;2.07;;
9689;SDS011;4884;42.614;23.340;2023-03-29T09:29:07;2.97;;;2.13;;
9689;SDS011;4884;42.614;23.340;2023-03-29T09:31:48;3.20;;;1.80;;
9689;SDS011;4884;42.614;23.340;2023-03-29T09:34:17;3.10;;;2.50;;
9689;SDS011;4884;42.614;23.340;2023-03-29T09:39:18;4.33;;;3.27;;
9689;SDS011;4884;42.614;23.340;2023-03-29T09:44:16;5.23;;;3.40;;
9689;SDS011;4884;42.614;23.340;2023-03-29T09:46:50;3.17;;;1.93;;
9689;SDS011;4884;42.614;23.340;2023-03-29T09:49:20;3.10;;;2.10;;
9689;SDS011;4884;42.614;23.340;2023-03-29T09:51:49;3.73;;;1.77;;
9689;SDS011;4884;42.614;23.340;2023-03-29T09:54:15;6.60;;;2.00;;
9689;SDS011;4884;42.614;23.340;2023-03-29T09:56:41;1.63;;;1.50;;
9689;SDS011;4884;42.614;23.340;2023-03-29T09:59:09;1.83;;;1.60;;
9689;SDS011;4884;42.614;23.340;2023-03-29T10:01:36;2.57;;;1.70;;
9689;SDS011;4884;42.614;23.340;2023-03-29T10:04:09;4.63;;;2.13;;
9689;SDS011;4884;42.614;23.340;2023-03-29T10:06:35;1.67;;;1.53;;
9689;SDS011;4884;42.614;23.340;2023-03-29T10:09:10;2.23;;;1.50;;
9689;SDS011;4884;42.614;23.340;2023-03-29T10:11:38;2.93;;;1.50;;
9689;SDS011;4884;42.614;23.340;2023-03-29T10:14:40;2.40;;;1.37;;
9689;SDS011;4884;42.614;23.340;2023-03-29T10:17:39;2.80;;;1.87;;
9689;SDS011;4884;42.614;23.340;2023-03-29T10:20:02;2.10;;;1.90;;
9689;SDS011;4884;42.614;23.340;2023-03-29T10:22:32;1.43;;;1.30;;
9689;SDS011;4884;42.614;23.340;2023-03-29T10:25:10;3.03;;;1.53;;
9689;SDS011;4884;42.614;23.340;2023-03-29T10:27:39;3.93;;;1.83;;
9689;SDS011;4884;42.614;23.340;2023-03-29T10:30:11;2.77;;;1.90;;
9689;SDS011;4884;42.614;23.340;2023-03-29T10:32:43;2.00;;;1.70;;
9689;SDS011;4884;42.614;23.340;2023-03-29T10:37:41;3.17;;;2.37;;
9689;SDS011;4884;42.614;23.340;2023-03-29T10:40:14;2.80;;;1.90;;
9689;SDS011;4884;42.614;23.340;2023-03-29T10:45:39;3.57;;;2.03;;
9689;SDS011;4884;42.614;23.340;2023-03-29T10:48:05;4.60;;;2.00;;
9689;SDS011;4884;42.614;23.340;2023-03-29T10:50:34;2.30;;;1.90;;
9689;SDS011;4884;42.614;23.340;2023-03-29T10:53:02;2.13;;;1.60;;
9689;SDS011;4884;42.614;23.340;2023-03-29T10:55:34;2.27;;;1.50;;
9689;SDS011;4884;42.614;23.340;2023-03-29T11:00:48;1.87;;;1.47;;
9689;SDS011;4884;42.614;23.340;2023-03-29T11:06:18;1.73;;;1.57;;
9689;SDS011;4884;42.614;23.340;2023-03-29T11:09:05;2.13;;;1.57;;
9689;SDS011;4884;42.614;23.340;2023-03-29T11:11:46;1.87;;;1.50;;
9689;SDS011;4884;42.614;23.340;2023-03-29T11:16:55;2.50;;;1.90;;
9689;SDS011;4884;42.614;23.340;2023-03-29T11:40:50;3.23;;;1.73;;
9689;SDS011;4884;42.614;23.340;2023-03-29T11:45:56;5.20;;;1.80;;
9689;SDS011;4884;42.614;23.340;2023-03-29T11:48:28;2.40;;;2.00;;
9689;SDS011;4884;42.614;23.340;2023-03-29T11:51:01;2.73;;;1.67;;
9689;SDS011;4884;42.614;23.340;2023-03-29T11:53:43;4.03;;;1.70;;
9689;SDS011;4884;42.614;23.340;2023-03-29T11:56:19;3.43;;;1.83;;
9689;SDS011;4884;42.614;23.340;2023-03-29T11:58:51;5.10;;;2.00;;
9689;SDS011;4884;42.614;23.340;2023-03-29T12:01:30;2.30;;;1.63;;
9689;SDS011;4884;42.614;23.340;2023-03-29T12:04:00;2.13;;;1.67;;
9689;SDS011;4884;42.614;23.340;2023-03-29T12:06:30;2.67;;;1.93;;
9689;SDS011;4884;42.614;23.340;2023-03-29T12:12:06;2.23;;;1.50;;
9689;SDS011;4884;42.614;23.340;2023-03-29T12:14:48;1.53;;;1.43;;
9689;SDS011;4884;42.614;23.340;2023-03-29T12:17:22;1.97;;;1.73;;
9689;SDS011;4884;42.614;23.340;2023-03-29T12:19:58;2.50;;;1.93;;
9689;SDS011;4884;42.614;23.340;2023-03-29T12:22:28;3.27;;;1.70;;
9689;SDS011;4884;42.614;23.340;2023-03-29T12:24:53;3.67;;;1.63;;
9689;SDS011;4884;42.614;23.340;2023-03-29T12:27:32;2.23;;;1.83;;
9689;SDS011;4884;42.614;23.340;2023-03-29T12:35:23;2.80;;;2.17;;
9689;SDS011;4884;42.614;23.340;2023-03-29T12:40:58;6.40;;;1.77;;
9689;SDS011;4884;42.614;23.340;2023-03-29T12:45:54;5.10;;;2.20;;
9689;SDS011;4884;42.614;23.340;2023-03-29T12:48:23;2.83;;;1.70;;
9689;SDS011;4884;42.614;23.340;2023-03-29T13:03:39;2.90;;;1.90;;
9689;SDS011;4884;42.614;23.340;2023-03-29T13:06:12;2.67;;;2.20;;
9689;SDS011;4884;42.614;23.340;2023-03-29T13:09:17;2.83;;;1.90;;
9689;SDS011;4884;42.614;23.340;2023-03-29T13:11:50;2.00;;;1.70;;
9689;SDS011;4884;42.614;23.340;2023-03-29T13:14:22;4.63;;;2.20;;
9689;SDS011;4884;42.614;23.340;2023-03-29T13:16:50;2.67;;;1.50;;
9689;SDS011;4884;42.614;23.340;2023-03-29T13:38:19;10.63;;;9.73;;
9689;SDS011;4884;42.614;23.340;2023-03-29T13:43:31;8.33;;;4.10;;
9689;SDS011;4884;42.614;23.340;2023-03-29T13:51:26;16.90;;;15.13;;
9689;SDS011;4884;42.614;23.340;2023-03-29T13:53:57;4.03;;;2.50;;
9689;SDS011;4884;42.614;23.340;2023-03-29T13:56:37;6.80;;;6.17;;
9689;SDS011;4884;42.614;23.340;2023-03-29T13:59:11;10.27;;;5.93;;
9689;SDS011;4884;42.614;23.340;2023-03-29T14:01:53;2.57;;;2.23;;
9689;SDS011;4884;42.614;23.340;2023-03-29T14:04:26;4.63;;;3.30;;
9689;SDS011;4884;42.614;23.340;2023-03-29T14:06:55;4.47;;;3.37;;
9689;SDS011;4884;42.614;23.340;2023-03-29T14:09:22;4.33;;;2.80;;
9689;SDS011;4884;42.614;23.340;2023-03-29T14:11:52;3.50;;;2.10;;
9689;SDS011;4884;42.614;23.340;2023-03-29T14:14:20;3.03;;;2.00;;
9689;SDS011;4884;42.614;23.340;2023-03-29T14:16:47;3.40;;;3.00;;
9689;SDS011;4884;42.614;23.340;2023-03-29T14:19:35;6.90;;;2.50;;
9689;SDS011;4884;42.614;23.340;2023-03-29T14:22:00;3.70;;;1.63;;
9689;SDS011;4884;42.614;23.340;2023-03-29T14:24:32;2.97;;;2.03;;
9689;SDS011;4884;42.614;23.340;2023-03-29T14:27:01;3.83;;;2.47;;
9689;SDS011;4884;42.614;23.340;2023-03-29T14:29:33;3.03;;;2.37;;
9689;SDS011;4884;42.614;23.340;2023-03-29T14:32:09;5.90;;;3.77;;
9689;SDS011;4884;42.614;23.340;2023-03-29T14:34:36;6.63;;;3.63;;
9689;SDS011;4884;42.614;23.340;2023-03-29T14:37:01;10.57;;;5.33;;
9689;SDS011;4884;42.614;23.340;2023-03-29T14:39:27;12.73;;;7.13;;
9689;SDS011;4884;42.614;23.340;2023-03-29T14:41:56;23.73;;;11.83;;
9689;SDS011;4884;42.614;23.340;2023-03-29T14:44:23;20.10;;;15.80;;
9689;SDS011;4884;42.614;23.340;2023-03-29T14:46:51;57.07;;;32.67;;
9689;SDS011;4884;42.614;23.340;2023-03-29T14:49:17;77.73;;;47.87;;
9689;SDS011;4884;42.614;23.340;2023-03-29T14:51:44;37.03;;;24.00;;
9689;SDS011;4884;42.614;23.340;2023-03-29T14:54:15;16.20;;;7.63;;
9689;SDS011;4884;42.614;23.340;2023-03-29T14:56:49;10.20;;;5.53;;
9689;SDS011;4884;42.614;23.340;2023-03-29T14:59:36;8.33;;;2.23;;
9689;SDS011;4884;42.614;23.340;2023-03-29T15:02:02;11.33;;;6.90;;
9689;SDS011;4884;42.614;23.340;2023-03-29T15:04:32;6.60;;;4.50;;
9689;SDS011;4884;42.614;23.340;2023-03-29T15:06:59;18.40;;;15.77;;
9689;SDS011;4884;42.614;23.340;2023-03-29T15:09:26;7.67;;;6.30;;
9689;SDS011;4884;42.614;23.340;2023-03-29T15:11:53;6.80;;;3.37;;
9689;SDS011;4884;42.614;23.340;2023-03-29T15:14:19;7.30;;;3.30;;
9689;SDS011;4884;42.614;23.340;2023-03-29T15:16:45;6.43;;;3.63;;
9689;SDS011;4884;42.614;23.340;2023-03-29T15:19:14;7.57;;;4.00;;
9689;SDS011;4884;42.614;23.340;2023-03-29T15:21:41;8.00;;;5.07;;
9689;SDS011;4884;42.614;23.340;2023-03-29T15:24:17;5.57;;;3.73;;
9689;SDS011;4884;42.614;23.340;2023-03-29T15:26:43;8.30;;;5.20;;
9689;SDS011;4884;42.614;23.340;2023-03-29T15:29:13;8.40;;;5.07;;
9689;SDS011;4884;42.614;23.340;2023-03-29T15:31:52;9.07;;;4.63;;
9689;SDS011;4884;42.614;23.340;2023-03-29T15:34:26;8.40;;;3.93;;
9689;SDS011;4884;42.614;23.340;2023-03-29T15:36:53;12.60;;;5.77;;
9689;SDS011;4884;42.614;23.340;2023-03-29T15:39:21;8.23;;;4.83;;
9689;SDS011;4884;42.614;23.340;2023-03-29T15:41:47;12.73;;;4.77;;
9689;SDS011;4884;42.614;23.340;2023-03-29T15:44:14;4.33;;;2.87;;
9689;SDS011;4884;42.614;23.340;2023-03-29T15:46:43;4.53;;;2.30;;
9689;SDS011;4884;42.614;23.340;2023-03-29T15:49:12;2.97;;;2.20;;
9689;SDS011;4884;42.614;23.340;2023-03-29T15:51:38;7.70;;;4.17;;
9689;SDS011;4884;42.614;23.340;2023-03-29T15:54:04;3.87;;;2.90;;
9689;SDS011;4884;42.614;23.340;2023-03-29T15:56:31;3.20;;;2.70;;
9689;SDS011;4884;42.614;23.340;2023-03-29T15:58:57;5.87;;;4.20;;
9689;SDS011;4884;42.614;23.340;2023-03-29T16:01:32;10.27;;;7.40;;
9689;SDS011;4884;42.614;23.340;2023-03-29T16:04:03;13.97;;;7.30;;
9689;SDS011;4884;42.614;23.340;2023-03-29T16:06:31;10.63;;;9.40;;
9689;SDS011;4884;42.614;23.340;2023-03-29T16:08:57;9.60;;;7.73;;
9689;SDS011;4884;42.614;23.340;2023-03-29T16:11:22;9.43;;;7.90;;
9689;SDS011;4884;42.614;23.340;2023-03-29T16:13:48;6.47;;;5.60;;
9689;SDS011;4884;42.614;23.340;2023-03-29T16:16:14;8.30;;;6.07;;
9689;SDS011;4884;42.614;23.340;2023-03-29T16:18:40;5.43;;;4.00;;
9689;SDS011;4884;42.614;23.340;2023-03-29T16:21:05;6.53;;;3.60;;
9689;SDS011;4884;42.614;23.340;2023-03-29T16:23:35;5.70;;;4.77;;
9689;SDS011;4884;42.614;23.340;2023-03-29T16:26:02;7.53;;;5.33;;
9689;SDS011;4884;42.614;23.340;2023-03-29T16:28:28;10.80;;;8.93;;
9689;SDS011;4884;42.614;23.340;2023-03-29T16:30:55;11.60;;;6.60;;
9689;SDS011;4884;42.614;23.340;2023-03-29T16:33:20;13.07;;;7.77;;
9689;SDS011;4884;42.614;23.340;2023-03-29T16:35:46;10.97;;;6.63;;
9689;SDS011;4884;42.614;23.340;2023-03-29T16:38:12;16.23;;;9.07;;
9689;SDS011;4884;42.614;23.340;2023-03-29T16:40:37;21.17;;;11.70;;
9689;SDS011;4884;42.614;23.340;2023-03-29T16:43:03;26.17;;;12.73;;
9689;SDS011;4884;42.614;23.340;2023-03-29T16:45:28;20.67;;;12.63;;
9689;SDS011;4884;42.614;23.340;2023-03-29T16:47:54;41.93;;;24.40;;
9689;SDS011;4884;42.614;23.340;2023-03-29T16:50:20;78.57;;;42.27;;
9689;SDS011;4884;42.614;23.340;2023-03-29T16:52:46;35.37;;;22.83;;
9689;SDS011;4884;42.614;23.340;2023-03-29T16:55:16;17.80;;;13.00;;
9689;SDS011;4884;42.614;23.340;2023-03-29T16:57:43;7.30;;;5.67;;
9689;SDS011;4884;42.614;23.340;2023-03-29T17:00:10;7.53;;;4.73;;
9689;SDS011;4884;42.614;23.340;2023-03-29T17:02:40;5.87;;;4.90;;
9689;SDS011;4884;42.614;23.340;2023-03-29T17:05:06;5.07;;;3.67;;
9689;SDS011;4884;42.614;23.340;2023-03-29T17:07:33;5.30;;;3.50;;
9689;SDS011;4884;42.614;23.340;2023-03-29T17:09:58;4.30;;;3.90;;
9689;SDS011;4884;42.614;23.340;2023-03-29T17:12:24;5.73;;;3.63;;
9689;SDS011;4884;42.614;23.340;2023-03-29T17:14:50;4.83;;;3.40;;
9689;SDS011;4884;42.614;23.340;2023-03-29T17:17:16;4.87;;;4.03;;
9689;SDS011;4884;42.614;23.340;2023-03-29T17:19:42;31.67;;;17.90;;
9689;SDS011;4884;42.614;23.340;2023-03-29T17:22:07;8.03;;;5.00;;
9689;SDS011;4884;42.614;23.340;2023-03-29T17:24:33;5.10;;;2.57;;
9689;SDS011;4884;42.614;23.340;2023-03-29T17:26:58;10.00;;;6.00;;